METAR Data
IDs: Format: Raw Decoded Include TAF

Data at: 1331 UTC 14 Dec 2019

PAOR 141311Z 00000KT 1/4SM FZFG BKN001 OVC019 M21/M23 A2982 RMK AO2 T12061228 PNO
PAOR 141253Z 00000KT 3SM BR BKN001 OVC019 M21/M23 A2982 RMK AO2 SLP155 T12061228 PNO
PAOR 141153Z 00000KT 3SM BR BKN002 OVC019 M20/M23 A2980 RMK AO2 SLP150 4/012 T12001228 11122 21200 51008 PNO
PAOR 141053Z 00000KT 10SM BKN002 OVC021 M19/M22 A2980 RMK AO2 SLP148 T11941222 PNO
PAOR 140953Z 00000KT 10SM SCT021 SCT120 M18/M22 A2979 RMK AO2 SLP142 T11831217 PNO
PAOR 140853Z 00000KT 10SM SCT021 SCT120 M18/M21 A2978 RMK AO2 SLP139 T11781211 410831178 52009 PNO
PAOR 140753Z 00000KT 10SM FEW021 SCT120 M18/M20 A2977 RMK AO2 SLP136 T11781200 PNO
PAOR 140653Z 00000KT 10SM FEW021 SCT090 BKN120 M14/M17 A2976 RMK AO2 SLP128 T11441172 PNO
PAOR 140553Z 22003KT 10SM FEW075 SCT090 BKN110 M12/M14 A2975 RMK AO2 SLP122 4/012 T11171139 11089 21117 53004 PNO
PAOR 140453Z 00000KT 10SM FEW075 BKN090 M11/M13 A2975 RMK AO2 SLP120 T11111133 PNO
PAOR 140353Z 00000KT 10SM BKN110 M12/M14 A2974 RMK AO2 SLP117 T11171139 PNO
PAOR 140253Z 00000KT 10SM BKN090 BKN110 M11/M13 A2974 RMK AO2 SLP117 T11111133 53004 PNO
PAOR 140153Z 00000KT 10SM FEW075 SCT095 BKN110 M11/M13 A2973 RMK AO2 SLP115 T11061128 PNO
PAOR 140053Z 00000KT 10SM BKN065 OVC070 M09/M11 A2972 RMK AO2 SLP111 T10891111 PNO
PAOR 132353Z 00000KT 10SM FEW035 OVC070 M09/M11 A2972 RMK AO2 SLP110 4/012 T10891106 11083 21094 51012 PNO
PAOR 132253Z 00000KT 10SM FEW026 OVC090 M09/M11 A2972 RMK AO2 SLP110 T10941111 PNO
PAOR 132241Z 00000KT 10SM SCT026 BKN090 M09/M11 A2971 RMK AO2 T10891111 PNO
PAOR 132153Z 00000KT 10SM BKN025 OVC090 M09/M11 A2970 RMK AO2 SLP104 T10891106 PNO
PAOR 132053Z 00000KT 10SM OVC025 M09/M11 A2969 RMK AO2 SLP099 T10891106 53017 PNO
PAOR 131953Z 00000KT 10SM OVC025 M09/M11 A2967 RMK AO2 SLP093 T10891111 PNO
PAOR 131853Z 00000KT 10SM OVC026 M09/M11 A2965 RMK AO2 SLP086 T10891111 PNO
PAOR 131753Z 00000KT 10SM OVC025 M09/M11 A2963 RMK AO2 SLP082 4/012 T10891111 11089 21094 53016 PNO
PAOR 131653Z 00000KT 10SM FEW017 OVC027 M09/M11 A2961
PAOR 131553Z 00000KT 10SM FEW017 OVC030 M09/M11 A2959 RMK AO2 SLP066 T10891111 PNO
PAOR 131453Z 00000KT 10SM FEW017 OVC030 M09/M11 A2958 RMK AO2 SLP063 T10891111 53015 PNO
PAOR 131353Z 00000KT 10SM FEW017 OVC030 M09/M11 A2957 RMK AO2 SLP057 T10941111 PNO
PAOR 131253Z 00000KT 10SM OVC030 M09/M12 A2955 RMK AO2 SLP052 T10941117 PNO
PAOR 131153Z 00000KT 10SM OVC030 M09/M12 A2954 RMK AO2 SLP048 4/012 T10941117 11094 21111 53012 PNO
PAOR 131053Z 00000KT 10SM OVC030 M09/M12 A2952 RMK AO2 SLP043 T10941117 PNO
PAOR 130953Z 00000KT 10SM OVC030 M10/M12 A2951 RMK AO2 SLP040 T11001122 PNO
PAOR 130853Z 08003KT 10SM OVC027 M10/M12 A2950 RMK AO2 SLP037 T11001122 410891139 51012 PNO
PAOR 130817Z 00000KT 10SM BKN027 OVC030 M10/M12 A2950 RMK AO2 T11001122 PNO
PAOR 130753Z 00000KT 10SM SCT028 OVC030 M11/M13 A2949 RMK AO2 SLP035 T11061128 PNO
PAOR 130653Z 00000KT 10SM OVC030 M11/M13 A2948 RMK AO2 SLP031 T11111133 PNO
PAOR 130553Z 00000KT 10SM FEW016 SCT030 BKN080 M11/M13 A2947 RMK AO2 SNE14 SLP027 4/012 I6002 T11111133 11089 21111 53005 PNO
PAOR 130515Z 00000KT 9SM SCT015 OVC030 M09/M12 A2946 RMK AO2 SNE14 T10941117 PNO
PAOR 130453Z 00000KT 9SM -SN OVC015 M09/M11 A2945 RMK AO2 SLP021 PCPN VRY LGT T10891111 PNO
PAOR 130353Z 16003KT 6SM -SN FEW007 OVC015 M09/M12 A2945 RMK AO2 FZDZE34SNB34 SLP019 PCPN VRY LGT I1000 T10941117 PNO
PAOR 130335Z 16004KT 4SM -SN FEW007 SCT012 OVC015 M09/M11 A2945 RMK AO2 FZDZE34SNB34 I1000 T10941111 PNO
PAOR 130253Z 00000KT 5SM -FZDZ FEW005 OVC018 M09/M11 A2945 RMK AO2 SLP020 I1001 I3002 T10941111 55004 PNO
PAOR 130153Z 00000KT 3SM -FZDZ FEW006 SCT018 OVC026 M09/M12 A2945 RMK AO2 FZDZB39 SLP021 I1001 T10941117 PNO
PAOR 130140Z 00000KT 3SM -FZDZ FEW006 BKN016 OVC026 M09/M12 A2945 RMK AO2 FZDZB39 I1001 T10941117 PNO